sensor_id;sensor_type;location;lat;lon;timestamp;P1;durP1;ratioP1;P2;durP2;ratioP2
47930;SDS011;33697;51.520;9.950;2023-01-23T00:00:41;17.10;;;13.88;;
47930;SDS011;33697;51.520;9.950;2023-01-23T00:03:08;19.40;;;13.23;;
47930;SDS011;33697;51.520;9.950;2023-01-23T00:05:34;18.13;;;13.23;;
47930;SDS011;33697;51.520;9.950;2023-01-23T00:08:00;16.52;;;13.15;;
47930;SDS011;33697;51.520;9.950;2023-01-23T00:10:27;21.85;;;16.67;;
47930;SDS011;33697;51.520;9.950;2023-01-23T00:12:53;22.17;;;14.90;;
47930;SDS011;33697;51.520;9.950;2023-01-23T00:15:20;18.15;;;14.05;;
47930;SDS011;33697;51.520;9.950;2023-01-23T00:17:46;18.92;;;14.35;;
47930;SDS011;33697;51.520;9.950;2023-01-23T00:20:13;19.00;;;14.30;;
47930;SDS011;33697;51.520;9.950;2023-01-23T00:22:40;17.73;;;13.43;;
47930;SDS011;33697;51.520;9.950;2023-01-23T00:25:06;20.90;;;13.55;;
47930;SDS011;33697;51.520;9.950;2023-01-23T00:27:33;18.70;;;13.43;;
47930;SDS011;33697;51.520;9.950;2023-01-23T00:29:59;20.45;;;14.18;;
47930;SDS011;33697;51.520;9.950;2023-01-23T00:32:27;18.30;;;13.50;;
47930;SDS011;33697;51.520;9.950;2023-01-23T00:34:54;19.70;;;13.10;;
47930;SDS011;33697;51.520;9.950;2023-01-23T00:37:20;17.17;;;13.63;;
47930;SDS011;33697;51.520;9.950;2023-01-23T00:39:47;16.38;;;12.82;;
47930;SDS011;33697;51.520;9.950;2023-01-23T00:42:16;16.83;;;12.52;;
47930;SDS011;33697;51.520;9.950;2023-01-23T00:44:42;17.02;;;12.93;;
47930;SDS011;33697;51.520;9.950;2023-01-23T00:47:09;17.33;;;13.52;;
47930;SDS011;33697;51.520;9.950;2023-01-23T00:49:35;16.02;;;12.63;;
47930;SDS011;33697;51.520;9.950;2023-01-23T00:52:02;18.40;;;13.85;;
47930;SDS011;33697;51.520;9.950;2023-01-23T00:54:28;17.52;;;13.43;;
47930;SDS011;33697;51.520;9.950;2023-01-23T00:57:01;17.27;;;13.20;;
47930;SDS011;33697;51.520;9.950;2023-01-23T00:59:28;17.52;;;12.85;;
47930;SDS011;33697;51.520;9.950;2023-01-23T01:01:54;14.60;;;10.52;;
47930;SDS011;33697;51.520;9.950;2023-01-23T01:04:21;13.27;;;10.50;;
47930;SDS011;33697;51.520;9.950;2023-01-23T01:06:47;14.85;;;11.05;;
47930;SDS011;33697;51.520;9.950;2023-01-23T01:09:14;14.35;;;10.68;;
47930;SDS011;33697;51.520;9.950;2023-01-23T01:11:40;13.65;;;11.20;;
47930;SDS011;33697;51.520;9.950;2023-01-23T01:14:06;11.88;;;9.80;;
47930;SDS011;33697;51.520;9.950;2023-01-23T01:16:33;11.73;;;9.60;;
47930;SDS011;33697;51.520;9.950;2023-01-23T01:19:00;11.65;;;9.13;;
47930;SDS011;33697;51.520;9.950;2023-01-23T01:21:28;14.82;;;10.70;;
47930;SDS011;33697;51.520;9.950;2023-01-23T01:23:55;16.23;;;12.20;;
47930;SDS011;33697;51.520;9.950;2023-01-23T01:26:21;16.90;;;12.30;;
47930;SDS011;33697;51.520;9.950;2023-01-23T01:28:48;18.15;;;12.65;;
47930;SDS011;33697;51.520;9.950;2023-01-23T01:31:15;18.75;;;12.77;;
47930;SDS011;33697;51.520;9.950;2023-01-23T01:33:42;16.55;;;12.55;;
47930;SDS011;33697;51.520;9.950;2023-01-23T01:36:09;17.35;;;12.57;;
47930;SDS011;33697;51.520;9.950;2023-01-23T01:38:36;19.92;;;14.70;;
47930;SDS011;33697;51.520;9.950;2023-01-23T01:41:03;21.13;;;13.50;;
47930;SDS011;33697;51.520;9.950;2023-01-23T01:43:29;16.65;;;12.63;;
47930;SDS011;33697;51.520;9.950;2023-01-23T01:46:03;20.15;;;13.52;;
47930;SDS011;33697;51.520;9.950;2023-01-23T01:48:33;16.95;;;12.25;;
47930;SDS011;33697;51.520;9.950;2023-01-23T01:51:04;20.73;;;13.02;;
47930;SDS011;33697;51.520;9.950;2023-01-23T01:53:31;19.50;;;12.80;;
47930;SDS011;33697;51.520;9.950;2023-01-23T01:55:58;19.33;;;12.68;;
47930;SDS011;33697;51.520;9.950;2023-01-23T01:58:25;21.50;;;13.57;;
47930;SDS011;33697;51.520;9.950;2023-01-23T02:00:52;15.98;;;12.25;;
47930;SDS011;33697;51.520;9.950;2023-01-23T02:03:19;17.95;;;11.43;;
47930;SDS011;33697;51.520;9.950;2023-01-23T02:05:46;17.27;;;12.30;;
47930;SDS011;33697;51.520;9.950;2023-01-23T02:08:27;18.85;;;13.23;;
47930;SDS011;33697;51.520;9.950;2023-01-23T02:10:56;14.77;;;10.27;;
47930;SDS011;33697;51.520;9.950;2023-01-23T02:13:24;17.65;;;12.57;;
47930;SDS011;33697;51.520;9.950;2023-01-23T02:15:59;15.05;;;11.82;;
47930;SDS011;33697;51.520;9.950;2023-01-23T02:18:26;15.45;;;11.70;;
47930;SDS011;33697;51.520;9.950;2023-01-23T02:20:53;14.75;;;10.80;;
47930;SDS011;33697;51.520;9.950;2023-01-23T02:26:08;11.35;;;9.77;;
47930;SDS011;33697;51.520;9.950;2023-01-23T02:31:03;13.93;;;9.93;;
47930;SDS011;33697;51.520;9.950;2023-01-23T02:35:57;13.63;;;10.98;;
47930;SDS011;33697;51.520;9.950;2023-01-23T02:38:29;14.23;;;9.68;;
47930;SDS011;33697;51.520;9.950;2023-01-23T02:40:58;11.15;;;9.50;;
47930;SDS011;33697;51.520;9.950;2023-01-23T02:43:27;14.95;;;10.07;;
47930;SDS011;33697;51.520;9.950;2023-01-23T02:46:03;15.35;;;11.35;;
47930;SDS011;33697;51.520;9.950;2023-01-23T02:48:30;15.70;;;11.45;;
47930;SDS011;33697;51.520;9.950;2023-01-23T02:50:56;15.40;;;10.52;;
47930;SDS011;33697;51.520;9.950;2023-01-23T02:53:23;15.23;;;11.30;;
47930;SDS011;33697;51.520;9.950;2023-01-23T02:55:50;12.55;;;10.38;;
47930;SDS011;33697;51.520;9.950;2023-01-23T02:58:17;17.35;;;12.77;;
47930;SDS011;33697;51.520;9.950;2023-01-23T03:01:03;15.18;;;11.15;;
47930;SDS011;33697;51.520;9.950;2023-01-23T03:03:30;17.08;;;13.05;;
47930;SDS011;33697;51.520;9.950;2023-01-23T03:05:56;13.82;;;10.75;;
47930;SDS011;33697;51.520;9.950;2023-01-23T03:08:24;16.98;;;12.40;;
47930;SDS011;33697;51.520;9.950;2023-01-23T03:10:59;17.60;;;11.90;;
47930;SDS011;33697;51.520;9.950;2023-01-23T03:13:25;17.17;;;13.05;;
47930;SDS011;33697;51.520;9.950;2023-01-23T03:15:52;16.55;;;12.23;;
47930;SDS011;33697;51.520;9.950;2023-01-23T03:18:18;18.75;;;14.70;;
47930;SDS011;33697;51.520;9.950;2023-01-23T03:20:45;17.48;;;12.40;;
47930;SDS011;33697;51.520;9.950;2023-01-23T03:23:11;20.23;;;13.70;;
47930;SDS011;33697;51.520;9.950;2023-01-23T03:25:41;19.92;;;13.45;;
47930;SDS011;33697;51.520;9.950;2023-01-23T03:28:08;23.10;;;15.95;;
47930;SDS011;33697;51.520;9.950;2023-01-23T03:30:58;22.00;;;14.13;;
47930;SDS011;33697;51.520;9.950;2023-01-23T03:33:27;24.57;;;14.97;;
47930;SDS011;33697;51.520;9.950;2023-01-23T03:35:55;21.05;;;14.63;;
47930;SDS011;33697;51.520;9.950;2023-01-23T03:38:21;23.13;;;13.50;;
47930;SDS011;33697;51.520;9.950;2023-01-23T03:40:49;26.15;;;15.77;;
47930;SDS011;33697;51.520;9.950;2023-01-23T03:43:34;19.17;;;14.73;;
47930;SDS011;33697;51.520;9.950;2023-01-23T03:46:00;21.70;;;15.00;;
47930;SDS011;33697;51.520;9.950;2023-01-23T03:48:26;21.40;;;15.02;;
47930;SDS011;33697;51.520;9.950;2023-01-23T03:50:53;19.05;;;14.73;;
47930;SDS011;33697;51.520;9.950;2023-01-23T03:53:19;20.58;;;14.18;;
47930;SDS011;33697;51.520;9.950;2023-01-23T03:55:46;20.40;;;13.70;;
47930;SDS011;33697;51.520;9.950;2023-01-23T03:58:13;19.38;;;13.13;;
47930;SDS011;33697;51.520;9.950;2023-01-23T04:00:39;20.58;;;16.05;;
47930;SDS011;33697;51.520;9.950;2023-01-23T04:03:05;21.00;;;14.48;;
47930;SDS011;33697;51.520;9.950;2023-01-23T04:05:32;23.15;;;14.38;;
47930;SDS011;33697;51.520;9.950;2023-01-23T04:07:58;17.48;;;11.77;;
47930;SDS011;33697;51.520;9.950;2023-01-23T04:10:25;19.33;;;13.85;;
47930;SDS011;33697;51.520;9.950;2023-01-23T04:12:52;20.90;;;13.65;;
47930;SDS011;33697;51.520;9.950;2023-01-23T04:15:18;20.80;;;14.43;;
47930;SDS011;33697;51.520;9.950;2023-01-23T04:17:45;20.35;;;13.68;;
47930;SDS011;33697;51.520;9.950;2023-01-23T04:20:11;17.50;;;13.63;;
47930;SDS011;33697;51.520;9.950;2023-01-23T04:22:38;19.25;;;13.07;;
47930;SDS011;33697;51.520;9.950;2023-01-23T04:25:07;24.30;;;15.15;;
47930;SDS011;33697;51.520;9.950;2023-01-23T04:27:34;17.98;;;13.00;;
47930;SDS011;33697;51.520;9.950;2023-01-23T04:30:00;22.70;;;14.02;;
47930;SDS011;33697;51.520;9.950;2023-01-23T04:32:26;19.98;;;14.35;;
47930;SDS011;33697;51.520;9.950;2023-01-23T04:34:53;18.45;;;13.90;;
47930;SDS011;33697;51.520;9.950;2023-01-23T04:37:19;20.40;;;14.07;;
47930;SDS011;33697;51.520;9.950;2023-01-23T04:39:46;20.73;;;13.48;;
47930;SDS011;33697;51.520;9.950;2023-01-23T04:42:12;18.90;;;13.50;;
47930;SDS011;33697;51.520;9.950;2023-01-23T04:44:39;15.80;;;12.82;;
47930;SDS011;33697;51.520;9.950;2023-01-23T04:47:05;20.83;;;13.77;;
47930;SDS011;33697;51.520;9.950;2023-01-23T04:49:31;19.67;;;13.10;;
47930;SDS011;33697;51.520;9.950;2023-01-23T04:51:58;17.35;;;13.00;;
47930;SDS011;33697;51.520;9.950;2023-01-23T04:54:24;16.40;;;11.63;;
47930;SDS011;33697;51.520;9.950;2023-01-23T04:56:51;17.80;;;13.82;;
47930;SDS011;33697;51.520;9.950;2023-01-23T04:59:17;17.02;;;11.98;;
47930;SDS011;33697;51.520;9.950;2023-01-23T05:01:44;18.75;;;13.02;;
47930;SDS011;33697;51.520;9.950;2023-01-23T05:04:10;17.90;;;13.68;;
47930;SDS011;33697;51.520;9.950;2023-01-23T05:06:37;16.83;;;12.05;;
47930;SDS011;33697;51.520;9.950;2023-01-23T05:09:04;19.40;;;13.02;;
47930;SDS011;33697;51.520;9.950;2023-01-23T05:11:30;19.60;;;12.75;;
47930;SDS011;33697;51.520;9.950;2023-01-23T05:13:57;18.45;;;11.88;;
47930;SDS011;33697;51.520;9.950;2023-01-23T05:16:23;16.70;;;11.88;;
47930;SDS011;33697;51.520;9.950;2023-01-23T05:18:50;16.67;;;12.63;;
47930;SDS011;33697;51.520;9.950;2023-01-23T05:21:16;17.15;;;12.93;;
47930;SDS011;33697;51.520;9.950;2023-01-23T05:23:42;18.25;;;12.90;;
47930;SDS011;33697;51.520;9.950;2023-01-23T05:26:09;17.13;;;13.05;;
47930;SDS011;33697;51.520;9.950;2023-01-23T05:28:39;18.20;;;12.15;;
47930;SDS011;33697;51.520;9.950;2023-01-23T05:31:08;21.65;;;14.20;;
47930;SDS011;33697;51.520;9.950;2023-01-23T05:33:35;17.60;;;13.63;;
47930;SDS011;33697;51.520;9.950;2023-01-23T05:36:02;20.13;;;12.02;;
47930;SDS011;33697;51.520;9.950;2023-01-23T05:38:28;17.23;;;11.95;;
47930;SDS011;33697;51.520;9.950;2023-01-23T05:40:58;18.48;;;12.05;;
47930;SDS011;33697;51.520;9.950;2023-01-23T05:43:25;20.85;;;14.02;;
47930;SDS011;33697;51.520;9.950;2023-01-23T05:45:51;17.15;;;12.60;;
47930;SDS011;33697;51.520;9.950;2023-01-23T05:48:18;18.27;;;13.80;;
47930;SDS011;33697;51.520;9.950;2023-01-23T05:50:44;22.80;;;15.05;;
47930;SDS011;33697;51.520;9.950;2023-01-23T05:53:11;20.98;;;14.38;;
47930;SDS011;33697;51.520;9.950;2023-01-23T05:55:37;21.15;;;14.15;;
47930;SDS011;33697;51.520;9.950;2023-01-23T05:58:04;19.33;;;13.65;;
47930;SDS011;33697;51.520;9.950;2023-01-23T06:00:30;21.38;;;14.70;;
47930;SDS011;33697;51.520;9.950;2023-01-23T06:02:57;19.85;;;13.82;;
47930;SDS011;33697;51.520;9.950;2023-01-23T06:05:23;25.38;;;14.30;;
47930;SDS011;33697;51.520;9.950;2023-01-23T06:07:50;18.80;;;13.02;;
47930;SDS011;33697;51.520;9.950;2023-01-23T06:10:16;20.20;;;15.07;;
47930;SDS011;33697;51.520;9.950;2023-01-23T06:12:43;17.73;;;13.20;;
47930;SDS011;33697;51.520;9.950;2023-01-23T06:15:10;16.17;;;12.70;;
47930;SDS011;33697;51.520;9.950;2023-01-23T06:17:36;25.13;;;14.35;;
47930;SDS011;33697;51.520;9.950;2023-01-23T06:20:03;23.15;;;13.65;;
47930;SDS011;33697;51.520;9.950;2023-01-23T06:22:30;19.45;;;13.70;;
47930;SDS011;33697;51.520;9.950;2023-01-23T06:24:56;19.23;;;14.07;;
47930;SDS011;33697;51.520;9.950;2023-01-23T06:27:23;17.25;;;12.40;;
47930;SDS011;33697;51.520;9.950;2023-01-23T06:29:49;22.35;;;14.38;;
47930;SDS011;33697;51.520;9.950;2023-01-23T06:32:16;26.02;;;14.52;;
47930;SDS011;33697;51.520;9.950;2023-01-23T06:34:42;22.00;;;14.35;;
47930;SDS011;33697;51.520;9.950;2023-01-23T06:37:09;22.15;;;15.07;;
47930;SDS011;33697;51.520;9.950;2023-01-23T06:39:35;22.17;;;14.45;;
47930;SDS011;33697;51.520;9.950;2023-01-23T06:42:02;23.00;;;13.70;;
47930;SDS011;33697;51.520;9.950;2023-01-23T06:44:31;26.30;;;14.93;;
47930;SDS011;33697;51.520;9.950;2023-01-23T06:46:57;22.55;;;13.60;;
47930;SDS011;33697;51.520;9.950;2023-01-23T06:49:24;23.75;;;14.60;;
47930;SDS011;33697;51.520;9.950;2023-01-23T06:51:50;24.98;;;14.20;;
47930;SDS011;33697;51.520;9.950;2023-01-23T06:54:16;24.83;;;15.77;;
47930;SDS011;33697;51.520;9.950;2023-01-23T06:56:43;27.50;;;17.75;;
47930;SDS011;33697;51.520;9.950;2023-01-23T06:59:12;26.88;;;15.90;;
47930;SDS011;33697;51.520;9.950;2023-01-23T07:01:38;24.60;;;15.57;;
47930;SDS011;33697;51.520;9.950;2023-01-23T07:04:05;23.83;;;15.30;;
47930;SDS011;33697;51.520;9.950;2023-01-23T07:06:31;23.80;;;15.25;;
47930;SDS011;33697;51.520;9.950;2023-01-23T07:08:58;23.45;;;17.00;;
47930;SDS011;33697;51.520;9.950;2023-01-23T07:11:25;25.58;;;16.27;;
47930;SDS011;33697;51.520;9.950;2023-01-23T07:13:52;23.40;;;16.27;;
47930;SDS011;33697;51.520;9.950;2023-01-23T07:16:18;25.30;;;16.25;;
47930;SDS011;33697;51.520;9.950;2023-01-23T07:18:45;23.98;;;14.65;;
47930;SDS011;33697;51.520;9.950;2023-01-23T07:21:12;29.67;;;15.77;;
47930;SDS011;33697;51.520;9.950;2023-01-23T07:23:38;24.73;;;16.00;;
47930;SDS011;33697;51.520;9.950;2023-01-23T07:26:05;27.60;;;16.05;;
47930;SDS011;33697;51.520;9.950;2023-01-23T07:28:35;22.25;;;14.95;;
47930;SDS011;33697;51.520;9.950;2023-01-23T07:31:03;22.75;;;14.55;;
47930;SDS011;33697;51.520;9.950;2023-01-23T07:33:31;27.92;;;16.02;;
47930;SDS011;33697;51.520;9.950;2023-01-23T07:35:57;27.40;;;16.35;;
47930;SDS011;33697;51.520;9.950;2023-01-23T07:38:24;21.92;;;16.33;;
47930;SDS011;33697;51.520;9.950;2023-01-23T07:40:51;27.42;;;16.33;;
47930;SDS011;33697;51.520;9.950;2023-01-23T07:43:18;29.52;;;16.90;;
47930;SDS011;33697;51.520;9.950;2023-01-23T07:45:44;25.90;;;15.38;;
47930;SDS011;33697;51.520;9.950;2023-01-23T07:48:10;29.50;;;17.30;;
47930;SDS011;33697;51.520;9.950;2023-01-23T07:50:37;26.90;;;16.67;;
47930;SDS011;33697;51.520;9.950;2023-01-23T07:53:04;23.60;;;14.45;;
47930;SDS011;33697;51.520;9.950;2023-01-23T07:55:30;25.45;;;16.85;;
47930;SDS011;33697;51.520;9.950;2023-01-23T07:57:57;27.65;;;16.73;;
47930;SDS011;33697;51.520;9.950;2023-01-23T08:00:23;25.08;;;15.75;;
47930;SDS011;33697;51.520;9.950;2023-01-23T08:02:56;31.27;;;17.58;;
47930;SDS011;33697;51.520;9.950;2023-01-23T08:08:49;23.87;;;14.30;;
47930;SDS011;33697;51.520;9.950;2023-01-23T08:11:15;25.10;;;16.65;;
47930;SDS011;33697;51.520;9.950;2023-01-23T08:13:42;23.42;;;15.75;;
47930;SDS011;33697;51.520;9.950;2023-01-23T08:16:11;30.90;;;17.65;;
47930;SDS011;33697;51.520;9.950;2023-01-23T08:18:39;28.98;;;17.35;;
47930;SDS011;33697;51.520;9.950;2023-01-23T08:21:23;27.95;;;15.52;;
47930;SDS011;33697;51.520;9.950;2023-01-23T08:24:02;22.77;;;15.15;;
47930;SDS011;33697;51.520;9.950;2023-01-23T08:26:30;22.40;;;14.30;;
47930;SDS011;33697;51.520;9.950;2023-01-23T08:29:07;24.10;;;16.55;;
47930;SDS011;33697;51.520;9.950;2023-01-23T08:31:33;29.42;;;17.75;;
47930;SDS011;33697;51.520;9.950;2023-01-23T08:34:01;23.75;;;16.98;;
47930;SDS011;33697;51.520;9.950;2023-01-23T08:36:43;31.40;;;16.10;;
47930;SDS011;33697;51.520;9.950;2023-01-23T08:39:09;26.35;;;16.27;;
47930;SDS011;33697;51.520;9.950;2023-01-23T08:41:36;24.00;;;14.75;;
47930;SDS011;33697;51.520;9.950;2023-01-23T08:44:02;25.85;;;15.60;;
47930;SDS011;33697;51.520;9.950;2023-01-23T08:46:29;24.00;;;14.55;;
47930;SDS011;33697;51.520;9.950;2023-01-23T08:48:55;25.85;;;14.50;;
47930;SDS011;33697;51.520;9.950;2023-01-23T08:51:22;27.20;;;14.85;;
47930;SDS011;33697;51.520;9.950;2023-01-23T08:53:50;24.88;;;15.07;;
47930;SDS011;33697;51.520;9.950;2023-01-23T08:56:17;25.38;;;14.40;;
47930;SDS011;33697;51.520;9.950;2023-01-23T08:58:44;27.67;;;16.80;;
47930;SDS011;33697;51.520;9.950;2023-01-23T09:01:11;25.63;;;15.25;;
47930;SDS011;33697;51.520;9.950;2023-01-23T09:03:38;27.98;;;17.40;;
47930;SDS011;33697;51.520;9.950;2023-01-23T09:06:05;22.00;;;13.93;;
47930;SDS011;33697;51.520;9.950;2023-01-23T09:08:32;27.42;;;14.52;;
47930;SDS011;33697;51.520;9.950;2023-01-23T09:11:00;24.73;;;15.23;;
47930;SDS011;33697;51.520;9.950;2023-01-23T09:13:27;21.77;;;14.55;;
47930;SDS011;33697;51.520;9.950;2023-01-23T09:15:54;21.30;;;12.65;;
47930;SDS011;33697;51.520;9.950;2023-01-23T09:18:20;27.33;;;15.38;;
47930;SDS011;33697;51.520;9.950;2023-01-23T09:20:48;26.13;;;15.73;;
47930;SDS011;33697;51.520;9.950;2023-01-23T09:23:14;25.75;;;15.23;;
47930;SDS011;33697;51.520;9.950;2023-01-23T09:25:40;19.65;;;13.10;;
47930;SDS011;33697;51.520;9.950;2023-01-23T09:28:07;18.92;;;11.68;;
47930;SDS011;33697;51.520;9.950;2023-01-23T09:30:34;18.23;;;13.00;;
47930;SDS011;33697;51.520;9.950;2023-01-23T09:33:00;22.98;;;13.20;;
47930;SDS011;33697;51.520;9.950;2023-01-23T09:35:26;23.08;;;12.52;;
47930;SDS011;33697;51.520;9.950;2023-01-23T09:37:53;21.10;;;14.90;;
47930;SDS011;33697;51.520;9.950;2023-01-23T09:40:27;18.60;;;12.68;;
47930;SDS011;33697;51.520;9.950;2023-01-23T09:42:55;23.10;;;13.93;;
47930;SDS011;33697;51.520;9.950;2023-01-23T09:45:23;20.50;;;14.38;;
47930;SDS011;33697;51.520;9.950;2023-01-23T09:47:52;16.00;;;10.48;;
47930;SDS011;33697;51.520;9.950;2023-01-23T09:52:57;17.55;;;11.27;;
47930;SDS011;33697;51.520;9.950;2023-01-23T09:57:54;17.20;;;11.20;;
47930;SDS011;33697;51.520;9.950;2023-01-23T10:00:49;19.20;;;12.50;;
47930;SDS011;33697;51.520;9.950;2023-01-23T10:03:16;21.02;;;13.50;;
47930;SDS011;33697;51.520;9.950;2023-01-23T10:08:17;19.40;;;12.50;;
47930;SDS011;33697;51.520;9.950;2023-01-23T10:10:52;16.60;;;11.05;;
47930;SDS011;33697;51.520;9.950;2023-01-23T10:13:34;17.13;;;11.82;;
47930;SDS011;33697;51.520;9.950;2023-01-23T10:16:08;16.40;;;10.90;;
47930;SDS011;33697;51.520;9.950;2023-01-23T10:21:11;16.83;;;11.43;;
47930;SDS011;33697;51.520;9.950;2023-01-23T10:23:51;13.50;;;9.63;;
47930;SDS011;33697;51.520;9.950;2023-01-23T10:26:21;15.10;;;11.63;;
47930;SDS011;33697;51.520;9.950;2023-01-23T10:28:50;16.35;;;11.88;;
47930;SDS011;33697;51.520;9.950;2023-01-23T10:31:29;14.20;;;10.25;;
47930;SDS011;33697;51.520;9.950;2023-01-23T10:39:53;16.65;;;11.32;;
47930;SDS011;33697;51.520;9.950;2023-01-23T10:42:20;16.77;;;11.55;;
47930;SDS011;33697;51.520;9.950;2023-01-23T10:44:54;14.40;;;10.07;;
47930;SDS011;33697;51.520;9.950;2023-01-23T10:47:41;16.42;;;11.40;;
47930;SDS011;33697;51.520;9.950;2023-01-23T10:50:19;13.80;;;11.05;;
47930;SDS011;33697;51.520;9.950;2023-01-23T10:53:05;18.98;;;10.50;;
47930;SDS011;33697;51.520;9.950;2023-01-23T10:55:32;15.38;;;11.02;;
47930;SDS011;33697;51.520;9.950;2023-01-23T10:57:59;15.05;;;10.20;;
47930;SDS011;33697;51.520;9.950;2023-01-23T11:00:35;16.65;;;11.30;;
47930;SDS011;33697;51.520;9.950;2023-01-23T11:03:23;16.38;;;10.32;;
47930;SDS011;33697;51.520;9.950;2023-01-23T11:05:52;18.73;;;11.60;;
47930;SDS011;33697;51.520;9.950;2023-01-23T11:08:26;15.77;;;11.38;;
47930;SDS011;33697;51.520;9.950;2023-01-23T11:10:53;16.88;;;12.48;;
47930;SDS011;33697;51.520;9.950;2023-01-23T11:13:23;17.13;;;11.45;;
47930;SDS011;33697;51.520;9.950;2023-01-23T11:18:33;24.63;;;15.90;;
47930;SDS011;33697;51.520;9.950;2023-01-23T11:21:00;20.42;;;13.90;;
47930;SDS011;33697;51.520;9.950;2023-01-23T11:23:27;20.98;;;14.68;;
47930;SDS011;33697;51.520;9.950;2023-01-23T11:25:55;25.17;;;13.13;;
47930;SDS011;33697;51.520;9.950;2023-01-23T11:30:54;17.25;;;11.60;;
47930;SDS011;33697;51.520;9.950;2023-01-23T11:33:44;19.92;;;13.90;;
47930;SDS011;33697;51.520;9.950;2023-01-23T11:38:54;20.45;;;13.05;;
47930;SDS011;33697;51.520;9.950;2023-01-23T11:41:23;24.45;;;12.45;;
47930;SDS011;33697;51.520;9.950;2023-01-23T11:43:53;19.15;;;13.05;;
47930;SDS011;33697;51.520;9.950;2023-01-23T11:49:03;25.13;;;12.60;;
47930;SDS011;33697;51.520;9.950;2023-01-23T11:54:30;18.13;;;11.68;;
47930;SDS011;33697;51.520;9.950;2023-01-23T11:59:55;16.85;;;12.60;;
47930;SDS011;33697;51.520;9.950;2023-01-23T12:02:32;19.20;;;13.15;;
47930;SDS011;33697;51.520;9.950;2023-01-23T12:05:07;18.55;;;11.63;;
47930;SDS011;33697;51.520;9.950;2023-01-23T12:08:05;16.83;;;13.43;;
47930;SDS011;33697;51.520;9.950;2023-01-23T12:10:27;18.98;;;11.77;;
47930;SDS011;33697;51.520;9.950;2023-01-23T12:21:46;18.30;;;12.20;;
47930;SDS011;33697;51.520;9.950;2023-01-23T12:24:20;21.38;;;13.32;;
47930;SDS011;33697;51.520;9.950;2023-01-23T12:26:55;19.10;;;12.20;;
47930;SDS011;33697;51.520;9.950;2023-01-23T12:32:24;19.05;;;12.38;;
47930;SDS011;33697;51.520;9.950;2023-01-23T12:34:59;18.42;;;13.45;;
47930;SDS011;33697;51.520;9.950;2023-01-23T12:40:24;17.35;;;11.82;;
47930;SDS011;33697;51.520;9.950;2023-01-23T12:45:20;22.08;;;14.68;;
47930;SDS011;33697;51.520;9.950;2023-01-23T12:50:16;19.55;;;12.75;;
47930;SDS011;33697;51.520;9.950;2023-01-23T12:52:46;21.75;;;15.18;;
47930;SDS011;33697;51.520;9.950;2023-01-23T12:55:16;25.30;;;12.95;;
47930;SDS011;33697;51.520;9.950;2023-01-23T12:57:44;21.65;;;13.95;;
47930;SDS011;33697;51.520;9.950;2023-01-23T13:00:31;21.17;;;14.02;;
47930;SDS011;33697;51.520;9.950;2023-01-23T13:08:13;16.83;;;12.67;;
47930;SDS011;33697;51.520;9.950;2023-01-23T13:11:05;21.27;;;13.13;;
47930;SDS011;33697;51.520;9.950;2023-01-23T13:13:52;19.08;;;14.48;;
47930;SDS011;33697;51.520;9.950;2023-01-23T13:16:19;21.67;;;14.75;;
47930;SDS011;33697;51.520;9.950;2023-01-23T13:18:51;19.42;;;12.70;;
47930;SDS011;33697;51.520;9.950;2023-01-23T13:21:37;23.33;;;14.43;;
47930;SDS011;33697;51.520;9.950;2023-01-23T13:24:24;25.20;;;14.70;;
47930;SDS011;33697;51.520;9.950;2023-01-23T13:29:56;23.15;;;15.27;;
47930;SDS011;33697;51.520;9.950;2023-01-23T13:32:26;20.73;;;13.15;;
47930;SDS011;33697;51.520;9.950;2023-01-23T13:34:53;19.70;;;13.27;;
47930;SDS011;33697;51.520;9.950;2023-01-23T13:42:34;23.08;;;14.30;;
47930;SDS011;33697;51.520;9.950;2023-01-23T13:47:40;20.45;;;13.63;;
47930;SDS011;33697;51.520;9.950;2023-01-23T13:50:47;19.52;;;13.80;;
